createdAt,value
2019-02-09T00:01:39.358Z,4.17
2019-02-09T00:04:16.028Z,4.20
2019-02-09T00:06:51.719Z,4.17
2019-02-09T00:09:25.890Z,4.60
2019-02-09T00:12:01.948Z,4.67
2019-02-09T00:14:36.995Z,4.67
2019-02-09T00:17:13.244Z,4.97
2019-02-09T00:19:47.692Z,5.17
2019-02-09T00:22:22.901Z,5.63
2019-02-09T00:24:57.936Z,9.13
2019-02-09T00:27:33.994Z,5.43
2019-02-09T00:30:09.683Z,5.13
2019-02-09T00:32:43.682Z,8.50
2019-02-09T00:35:17.705Z,6.03
2019-02-09T00:37:52.898Z,7.17
2019-02-09T00:40:29.981Z,10.30
2019-02-09T00:43:05.683Z,8.20
2019-02-09T00:45:40.723Z,8.70
2019-02-09T00:48:18.686Z,10.07
2019-02-09T00:50:54.960Z,7.83
2019-02-09T00:53:29.685Z,8.20
2019-02-09T00:56:03.709Z,8.40
2019-02-09T00:58:38.900Z,12.33
2019-02-09T01:01:15.571Z,7.67
2019-02-09T01:03:50.201Z,8.00
2019-02-09T01:06:25.025Z,8.33
2019-02-09T01:08:59.683Z,14.40
2019-02-09T01:11:33.686Z,14.83
2019-02-09T01:14:12.582Z,13.53
2019-02-09T01:16:47.206Z,10.17
2019-02-09T01:19:22.683Z,10.00
2019-02-09T01:21:57.910Z,10.23
2019-02-09T01:24:34.560Z,12.07
2019-02-09T01:27:08.979Z,9.33
2019-02-09T01:29:44.684Z,7.97
2019-02-09T01:32:19.251Z,8.23
2019-02-09T01:34:53.701Z,7.20
2019-02-09T01:37:27.884Z,10.37
2019-02-09T01:40:03.940Z,8.13
2019-02-09T01:42:38.977Z,11.70
2019-02-09T01:45:15.683Z,13.43
2019-02-09T01:47:50.066Z,11.03
2019-02-09T01:50:28.686Z,9.13
2019-02-09T01:53:05.690Z,15.00
2019-02-09T01:55:39.702Z,13.23
2019-02-09T01:58:16.344Z,13.20
2019-02-09T02:00:52.197Z,15.67
2019-02-09T02:03:26.697Z,15.40
2019-02-09T02:06:00.691Z,16.13
2019-02-09T02:08:36.069Z,13.40
2019-02-09T02:11:11.920Z,13.10
2019-02-09T02:13:47.159Z,11.77
2019-02-09T02:16:21.697Z,14.90
2019-02-09T02:18:57.023Z,13.27
2019-02-09T02:21:33.079Z,15.23
2019-02-09T02:24:07.908Z,16.30
2019-02-09T02:26:44.171Z,15.47
2019-02-09T02:29:19.203Z,13.20
2019-02-09T02:31:54.240Z,12.00
2019-02-09T02:34:30.091Z,11.33
2019-02-09T02:37:06.148Z,10.37
2019-02-09T02:39:40.977Z,10.33
2019-02-09T02:42:16.627Z,8.93
2019-02-09T02:44:53.303Z,9.37
2019-02-09T02:47:31.198Z,8.80
2019-02-09T02:50:06.695Z,6.77
2019-02-09T02:52:43.107Z,6.03
2019-02-09T02:55:22.452Z,6.90
2019-02-09T02:57:57.713Z,8.60
2019-02-09T03:00:36.399Z,7.63
2019-02-09T03:03:11.697Z,5.37
2019-02-09T03:05:47.086Z,7.13
2019-02-09T03:08:24.983Z,4.77
2019-02-09T03:11:00.701Z,9.73
2019-02-09T03:13:34.701Z,4.50
2019-02-09T03:16:08.704Z,5.73
2019-02-09T03:18:43.709Z,4.80
2019-02-09T03:21:18.920Z,6.97
2019-02-09T03:23:59.075Z,5.63
2019-02-09T03:26:34.107Z,4.83
2019-02-09T03:29:10.164Z,4.00
2019-02-09T03:31:45.198Z,3.57
2019-02-09T03:34:20.232Z,3.93
2019-02-09T03:36:57.957Z,4.03
2019-02-09T03:39:36.238Z,3.20
2019-02-09T03:42:10.717Z,4.83
2019-02-09T03:44:44.668Z,7.63
2019-02-09T03:47:21.136Z,7.20
2019-02-09T03:49:55.143Z,8.97
2019-02-09T03:52:31.202Z,5.07
2019-02-09T03:55:07.051Z,5.83
2019-02-09T03:57:42.732Z,2.97
2019-02-09T04:00:19.987Z,2.47
2019-02-09T04:02:56.044Z,3.30
2019-02-09T04:05:30.728Z,2.70
2019-02-09T04:08:05.735Z,2.33
2019-02-09T04:10:46.674Z,3.37
2019-02-09T04:13:23.150Z,2.73
2019-02-09T04:15:58.743Z,4.33
2019-02-09T04:18:33.210Z,2.37
2019-02-09T04:21:09.064Z,3.60
2019-02-09T04:23:45.323Z,2.57
2019-02-09T04:26:19.948Z,2.23
2019-02-09T04:28:53.957Z,2.53
2019-02-09T04:34:32.286Z,2.40
2019-02-09T04:40:35.738Z,2.20
2019-02-09T04:43:11.264Z,2.50
2019-02-09T04:45:46.080Z,2.83
2019-02-09T04:52:01.747Z,2.60
2019-02-09T04:58:06.639Z,2.50
2019-02-09T05:00:42.284Z,3.50
2019-02-09T05:03:17.754Z,2.70
2019-02-09T05:09:25.341Z,2.67
2019-02-09T05:12:02.746Z,2.97
2019-02-09T05:14:37.660Z,2.80
2019-02-09T05:20:35.582Z,3.13
2019-02-09T05:26:37.766Z,2.40
2019-02-09T05:29:13.998Z,2.70
2019-02-09T05:31:49.441Z,8.83
2019-02-09T05:37:41.749Z,2.50
2019-02-09T05:43:46.242Z,2.13
2019-02-09T05:46:21.071Z,2.40
2019-02-09T05:48:56.751Z,4.53
2019-02-09T05:51:30.756Z,2.70
2019-02-09T05:54:05.966Z,3.60
2019-02-09T05:56:39.975Z,2.30
2019-02-09T05:59:15.215Z,2.30
2019-02-09T06:01:49.750Z,2.27
2019-02-09T06:04:23.764Z,2.13
2019-02-09T06:06:59.291Z,2.27
2019-02-09T06:09:34.768Z,2.73
2019-02-09T06:12:09.974Z,2.20
2019-02-09T06:14:45.752Z,2.50
2019-02-09T06:17:20.251Z,2.87
2019-02-09T06:19:56.300Z,2.37
2019-02-09T06:22:31.130Z,1.70
2019-02-09T06:25:05.990Z,2.00
2019-02-09T06:27:41.197Z,3.43
2019-02-09T06:30:19.713Z,2.20
2019-02-09T06:32:54.981Z,2.20
2019-02-09T06:35:30.199Z,3.10
2019-02-09T06:38:06.657Z,2.37
2019-02-09T06:40:41.894Z,1.97
2019-02-09T06:43:17.541Z,3.00
2019-02-09T06:45:52.371Z,2.40
2019-02-09T06:48:36.974Z,3.07
2019-02-09T06:51:12.270Z,1.90
2019-02-09T06:53:47.991Z,2.07
2019-02-09T06:56:22.539Z,2.40
2019-02-09T06:58:56.994Z,2.10
2019-02-09T07:01:30.996Z,2.10
2019-02-09T07:04:08.663Z,2.30
2019-02-09T07:06:43.288Z,2.30
2019-02-09T07:09:17.992Z,2.80
2019-02-09T07:11:53.008Z,1.70
2019-02-09T07:14:28.007Z,2.53
2019-02-09T07:17:03.219Z,2.10
2019-02-09T07:19:47.262Z,1.83
2019-02-09T07:22:22.500Z,2.10
2019-02-09T07:24:58.003Z,1.67
2019-02-09T07:27:33.006Z,2.10
2019-02-09T07:30:08.216Z,2.13
2019-02-09T07:32:43.863Z,1.87
2019-02-09T07:35:20.537Z,2.00
2019-02-09T07:37:56.006Z,2.20
2019-02-09T07:40:30.399Z,2.33
2019-02-09T07:43:05.638Z,3.03
2019-02-09T07:45:40.668Z,2.70
2019-02-09T07:48:15.500Z,3.50
2019-02-09T07:50:51.554Z,6.17
2019-02-09T07:53:28.638Z,3.53
2019-02-09T07:56:02.440Z,3.93
2019-02-09T07:58:38.294Z,3.73
2019-02-09T08:01:13.327Z,4.40
2019-02-09T08:03:48.035Z,3.73
2019-02-09T08:06:22.370Z,6.47
2019-02-09T08:08:57.030Z,9.27
2019-02-09T08:11:32.234Z,7.40
2019-02-09T08:14:28.036Z,5.53
2019-02-09T08:17:02.039Z,7.50
2019-02-09T08:19:39.457Z,3.03
2019-02-09T08:22:15.037Z,3.80
2019-02-09T08:24:50.340Z,3.40
2019-02-09T08:27:30.902Z,3.60
2019-02-09T08:30:05.332Z,4.00
2019-02-09T08:32:41.033Z,3.73
2019-02-09T08:35:15.386Z,4.57
2019-02-09T08:37:50.043Z,3.63
2019-02-09T08:40:26.070Z,3.73
2019-02-09T08:43:00.524Z,5.87
2019-02-09T08:45:36.527Z,3.47
2019-02-09T08:48:12.195Z,3.90
2019-02-09T08:50:50.535Z,3.50
2019-02-09T08:53:27.995Z,2.87
2019-02-09T08:56:10.526Z,6.53
2019-02-09T08:58:44.428Z,3.10
2019-02-09T09:01:19.287Z,8.77
2019-02-09T09:09:56.360Z,2.73
2019-02-09T09:12:39.382Z,2.50
2019-02-09T09:18:37.784Z,4.43
2019-02-09T09:21:14.253Z,7.83
2019-02-09T09:23:54.203Z,2.67
2019-02-09T09:26:32.306Z,2.73
2019-02-09T09:29:09.385Z,2.60
2019-02-09T09:31:46.064Z,3.03
2019-02-09T09:34:22.327Z,2.53
2019-02-09T09:37:00.434Z,6.53
2019-02-09T09:39:38.750Z,2.20
2019-02-09T09:42:14.189Z,2.90
2019-02-09T09:44:50.234Z,2.50
2019-02-09T09:47:30.390Z,3.20
2019-02-09T09:50:04.839Z,2.93
2019-02-09T09:52:44.754Z,2.60
2019-02-09T09:59:00.155Z,1.87
2019-02-09T10:05:16.166Z,2.90
2019-02-09T10:11:31.831Z,2.10
2019-02-09T10:14:08.926Z,2.63
2019-02-09T10:16:45.114Z,2.73
2019-02-09T10:19:21.171Z,2.73
2019-02-09T10:22:00.708Z,2.60
2019-02-09T10:24:36.842Z,2.23
2019-02-09T10:27:10.370Z,2.60
2019-02-09T10:33:26.380Z,5.43
2019-02-09T10:36:08.218Z,2.57
2019-02-09T10:38:46.072Z,2.70
2019-02-09T10:45:04.339Z,2.87
2019-02-09T10:47:41.903Z,2.50
2019-02-09T10:50:20.549Z,2.23
2019-02-09T10:52:55.173Z,2.23
2019-02-09T10:55:32.261Z,2.30
2019-02-09T10:58:06.059Z,2.43
2019-02-09T11:00:54.199Z,2.20
2019-02-09T11:03:28.855Z,2.33
2019-02-09T11:06:02.863Z,2.10
2019-02-09T11:08:36.887Z,2.43
2019-02-09T11:11:10.443Z,1.80
2019-02-09T11:13:45.271Z,1.83
2019-02-09T11:16:21.327Z,2.10
2019-02-09T11:19:00.050Z,1.63
2019-02-09T11:21:34.058Z,1.70
2019-02-09T11:24:14.859Z,2.17
2019-02-09T11:26:50.062Z,1.97
2019-02-09T11:29:25.850Z,2.53
2019-02-09T11:32:02.795Z,1.70
2019-02-09T11:34:36.874Z,1.67
2019-02-09T11:37:12.455Z,2.20
2019-02-09T11:40:07.357Z,2.07
2019-02-09T11:42:42.383Z,2.20
2019-02-09T11:45:28.068Z,1.90
2019-02-09T11:48:09.785Z,1.90
2019-02-09T11:50:42.875Z,1.83
2019-02-09T11:56:47.388Z,1.47
2019-02-09T11:59:22.863Z,1.97
2019-02-09T12:01:56.870Z,1.30
2019-02-09T12:04:31.055Z,1.43
2019-02-09T12:07:07.318Z,1.73
2019-02-09T12:09:40.849Z,1.87
2019-02-09T12:12:16.859Z,2.33
2019-02-09T12:14:51.395Z,1.83
2019-02-09T12:17:26.866Z,1.50
2019-02-09T12:20:02.079Z,1.80
2019-02-09T12:22:38.338Z,1.53
2019-02-09T12:25:14.850Z,1.40
2019-02-09T12:27:48.850Z,3.80
2019-02-09T12:30:30.401Z,3.00
2019-02-09T12:36:20.857Z,1.83
2019-02-09T12:39:02.416Z,1.80
2019-02-09T12:41:35.857Z,1.60
2019-02-09T12:47:53.243Z,1.60
2019-02-09T12:54:08.875Z,1.60
2019-02-09T12:56:45.549Z,1.80
2019-02-09T12:59:22.395Z,1.53
2019-02-09T13:05:39.874Z,1.47
2019-02-09T13:08:15.490Z,7.73
2019-02-09T13:10:50.316Z,1.60
2019-02-09T13:13:26.168Z,2.53
2019-02-09T13:16:00.859Z,1.53
2019-02-09T13:28:58.422Z,1.20
2019-02-09T13:31:34.462Z,1.23
2019-02-09T13:34:09.869Z,1.40
2019-02-09T13:36:44.869Z,1.63
2019-02-09T13:42:37.412Z,1.10
2019-02-09T13:45:17.375Z,1.90
2019-02-09T13:47:53.420Z,2.20
2019-02-09T13:50:27.871Z,1.30
2019-02-09T13:53:02.902Z,1.30
2019-02-09T13:55:37.497Z,0.90
2019-02-09T13:58:12.871Z,1.10
2019-02-09T14:00:47.153Z,1.30
2019-02-09T14:03:23.215Z,0.97
2019-02-09T14:05:58.244Z,1.10
2019-02-09T14:08:36.477Z,1.00
2019-02-09T14:11:10.567Z,0.80
2019-02-09T14:13:51.962Z,1.00
2019-02-09T14:16:28.415Z,1.17
2019-02-09T14:22:31.883Z,1.17
2019-02-09T14:28:35.454Z,0.90
2019-02-09T14:34:39.383Z,1.07
2019-02-09T14:37:15.237Z,1.53
2019-02-09T14:39:49.900Z,0.93
2019-02-09T14:45:53.379Z,3.73
2019-02-09T14:48:28.895Z,1.10
2019-02-09T14:51:06.110Z,1.30
2019-02-09T14:57:09.016Z,2.63
2019-02-09T14:59:44.663Z,1.17
2019-02-09T15:02:19.501Z,1.20
2019-02-09T15:04:53.294Z,4.93
2019-02-09T15:07:29.071Z,1.10
2019-02-09T15:13:31.072Z,2.83
2019-02-09T15:16:13.643Z,1.53
2019-02-09T15:18:51.547Z,2.20
2019-02-09T15:21:26.370Z,1.20
2019-02-09T15:24:01.404Z,1.47
2019-02-09T15:26:37.086Z,2.47
2019-02-09T15:29:11.675Z,1.23
2019-02-09T15:31:46.506Z,2.30
2019-02-09T15:34:22.562Z,1.43
2019-02-09T15:36:59.086Z,5.27
2019-02-09T15:39:34.472Z,1.67
2019-02-09T15:42:12.085Z,15.47
2019-02-09T15:44:46.998Z,1.50
2019-02-09T15:47:25.932Z,3.50
2019-02-09T15:50:05.672Z,1.50
2019-02-09T15:52:44.597Z,1.57
2019-02-09T15:55:21.682Z,2.10
2019-02-09T15:57:56.499Z,4.17
2019-02-09T16:00:33.088Z,5.00
2019-02-09T16:03:15.988Z,1.63
2019-02-09T16:05:51.431Z,4.30
2019-02-09T16:08:50.429Z,1.77
2019-02-09T16:11:25.668Z,2.00
2019-02-09T16:14:03.593Z,2.30
2019-02-09T16:16:40.651Z,1.97
2019-02-09T16:19:15.108Z,2.27
2019-02-09T16:21:50.305Z,1.70
2019-02-09T16:30:47.716Z,2.00
2019-02-09T16:36:43.224Z,3.10
2019-02-09T16:39:17.038Z,2.83
2019-02-09T16:41:53.016Z,3.77
2019-02-09T16:44:29.358Z,7.40
2019-02-09T16:47:05.415Z,2.53
2019-02-09T16:49:41.678Z,5.43
2019-02-09T16:52:18.963Z,8.10
2019-02-09T16:54:53.384Z,2.60
2019-02-09T16:57:28.416Z,2.37
2019-02-09T17:00:04.472Z,2.30
2019-02-09T17:02:41.177Z,3.23
2019-02-09T17:05:16.384Z,3.27
2019-02-09T17:07:54.489Z,2.93
2019-02-09T17:10:31.197Z,1.93
2019-02-09T17:13:07.836Z,2.77
2019-02-09T17:15:42.221Z,2.20
2019-02-09T17:18:19.174Z,4.20
2019-02-09T17:20:54.572Z,2.73
2019-02-09T17:27:03.109Z,2.20
2019-02-09T17:29:45.005Z,4.40
2019-02-09T17:32:21.368Z,4.43
2019-02-09T17:34:55.787Z,10.50
2019-02-09T17:37:31.435Z,2.63
2019-02-09T17:40:05.035Z,4.37
2019-02-09T17:42:42.117Z,3.20
2019-02-09T17:48:45.545Z,7.53
2019-02-09T17:51:22.502Z,25.67
2019-02-09T17:54:00.637Z,13.17
2019-02-09T17:56:36.062Z,3.40
2019-02-09T17:59:11.016Z,3.27
2019-02-09T18:01:48.587Z,4.00
2019-02-09T18:04:25.258Z,4.60
2019-02-09T18:07:00.839Z,7.37
2019-02-09T18:09:34.856Z,4.37
2019-02-09T18:12:13.534Z,5.03
2019-02-09T18:14:50.893Z,8.70
2019-02-09T18:17:25.272Z,4.20
2019-02-09T18:23:41.456Z,3.77
2019-02-09T18:26:15.260Z,4.63
2019-02-09T18:28:49.821Z,4.57
2019-02-09T18:31:23.279Z,3.50
2019-02-09T18:33:58.112Z,3.90
2019-02-09T18:36:33.822Z,3.87
2019-02-09T18:39:09.841Z,3.93
2019-02-09T18:41:48.534Z,3.90
2019-02-09T18:44:23.363Z,3.90
2019-02-09T18:46:58.837Z,3.80
2019-02-09T18:49:39.830Z,7.20
2019-02-09T18:52:16.658Z,3.60
2019-02-09T18:54:53.327Z,4.60
2019-02-09T18:57:29.839Z,4.17
2019-02-09T19:00:03.839Z,5.03
2019-02-09T19:02:38.990Z,4.17
2019-02-09T19:05:14.280Z,4.47
2019-02-09T19:07:49.334Z,5.93
2019-02-09T19:13:39.842Z,5.80
2019-02-09T19:16:14.847Z,6.77
2019-02-09T19:18:49.180Z,3.83
2019-02-09T19:25:04.844Z,4.17
2019-02-09T19:27:38.383Z,4.00
2019-02-09T19:30:17.858Z,4.33
2019-02-09T19:32:53.366Z,4.47
2019-02-09T19:35:28.401Z,4.20
2019-02-09T19:38:04.269Z,5.77
2019-02-09T19:40:43.180Z,3.53
2019-02-09T19:43:18.867Z,3.70
2019-02-09T19:45:55.293Z,4.13
2019-02-09T19:52:09.974Z,4.40
2019-02-09T19:57:59.565Z,3.90
2019-02-09T20:00:37.705Z,6.20
2019-02-09T20:03:13.293Z,5.00
2019-02-09T20:05:49.339Z,4.97
2019-02-09T20:14:37.065Z,4.97
2019-02-09T20:20:46.682Z,8.57
2019-02-09T20:26:53.100Z,5.63
2019-02-09T20:29:32.020Z,5.10
2019-02-09T20:32:10.842Z,5.13
2019-02-09T20:38:18.709Z,5.43
2019-02-09T20:41:03.869Z,4.87
2019-02-09T20:43:46.955Z,4.30
2019-02-09T20:46:28.523Z,4.67
2019-02-09T20:49:14.227Z,5.30
2019-02-09T20:52:00.441Z,4.10
2019-02-09T20:54:48.442Z,4.30
2019-02-09T20:57:32.099Z,5.13
2019-02-09T21:00:19.827Z,5.10
2019-02-09T21:06:33.999Z,4.83
2019-02-09T21:09:16.142Z,4.30
2019-02-09T21:11:52.357Z,6.13
2019-02-09T21:14:35.050Z,5.13
2019-02-09T21:17:26.286Z,7.63
2019-02-09T21:20:01.829Z,4.50
2019-02-09T21:28:47.549Z,5.13
2019-02-09T21:31:28.730Z,5.47
2019-02-09T21:43:10.580Z,4.83
2019-02-09T21:52:54.351Z,6.10
2019-02-09T21:58:45.086Z,6.33
2019-02-09T22:04:16.345Z,5.27
2019-02-09T22:10:31.055Z,5.33
2019-02-09T22:13:02.428Z,5.17
2019-02-09T22:15:39.207Z,4.93
2019-02-09T22:18:15.443Z,4.40
2019-02-09T22:20:54.846Z,4.07
2019-02-09T22:27:00.981Z,4.40
2019-02-09T22:33:05.334Z,3.70
2019-02-09T22:39:11.956Z,3.47
2019-02-09T22:41:49.097Z,3.53
2019-02-09T22:48:26.108Z,3.20
2019-02-09T22:51:01.100Z,3.20
2019-02-09T22:53:37.099Z,4.00
2019-02-09T22:56:13.707Z,3.37
2019-02-09T22:58:51.127Z,3.60
2019-02-09T23:01:52.656Z,3.57
2019-02-09T23:04:51.442Z,3.97
2019-02-09T23:10:42.673Z,3.47
2019-02-09T23:16:23.676Z,3.57
2019-02-09T23:18:59.806Z,3.87
2019-02-09T23:21:34.753Z,3.07
2019-02-09T23:27:33.768Z,4.23
2019-02-09T23:33:49.166Z,3.30
2019-02-09T23:40:05.588Z,3.00
2019-02-09T23:42:44.717Z,3.20
2019-02-09T23:45:22.355Z,3.00
2019-02-09T23:47:57.240Z,3.33
2019-02-09T23:50:32.890Z,2.93
2019-02-09T23:53:08.363Z,3.10
2019-02-09T23:55:46.358Z,3.60
2019-02-09T23:58:20.858Z,2.77
